Aviation Digital Data Service (ADDS)

Output produced by METARs form (0641 UTC 24 March 2019)
found at http://www.aviationweather.gov/metar/data/
 
MRLB 240600Z 09013KT CAVOK 27/12 A2990 NOSIG
MRLB 240500Z 2406/2506 09016KT CAVOK TX35/2419Z TN22/2410Z 
     TEMPO 2410/2415 29004KT
       
MRPV 240500Z 2406/2506 09016KT CAVOK TX28/2420Z TN19/2410Z
       
MRLM 240500Z 2406/2506 25004KT 9999 FEW020 BKN100 TX29/2420Z TN21/2411Z 
     BECMG 2406/2413 DZ BKN020 
     BECMG 2414/2416 09005KT 
     BECMG 2500/2502 26003KT
       
MROC 240600Z 08010G20KT CAVOK 21/14 A3007 NOSIG
MROC 240500Z 2406/2506 10015KT CAVOK TX30/2419Z TN20/2411Z 
     TEMPO 2406/2418 10015G25KT 
     TEMPO 2419/2501 08008KT